createdAt,value
2022-07-28T00:00:56.149Z,44.45
2022-07-28T00:03:22.858Z,44.50
2022-07-28T00:05:49.488Z,44.44
2022-07-28T00:08:16.677Z,44.62
2022-07-28T00:10:43.271Z,44.25
2022-07-28T00:13:09.811Z,44.66
2022-07-28T00:15:36.401Z,44.77
2022-07-28T00:18:02.987Z,44.73
2022-07-28T00:20:30.694Z,45.20
2022-07-28T00:22:57.284Z,45.11
2022-07-28T00:25:23.891Z,45.02
2022-07-28T00:27:50.540Z,45.29
2022-07-28T00:30:17.110Z,45.47
2022-07-28T00:32:43.815Z,45.63
2022-07-28T00:35:10.341Z,46.07
2022-07-28T00:37:39.810Z,45.75
2022-07-28T00:40:07.821Z,45.48
2022-07-28T00:42:34.454Z,45.74
2022-07-28T00:45:01.161Z,46.29
2022-07-28T00:47:27.770Z,45.91
2022-07-28T00:50:01.507Z,46.24
2022-07-28T00:52:28.235Z,46.35
2022-07-28T00:54:54.775Z,46.65
2022-07-28T00:57:21.951Z,46.68
2022-07-28T00:59:48.475Z,46.56
2022-07-28T01:02:15.680Z,46.49
2022-07-28T01:04:42.454Z,47.06
2022-07-28T01:07:26.839Z,46.86
2022-07-28T01:09:58.868Z,46.81
2022-07-28T01:12:53.228Z,46.92
2022-07-28T01:15:29.877Z,46.93
2022-07-28T01:18:05.028Z,46.61
2022-07-28T01:21:08.666Z,47.07
2022-07-28T01:24:02.353Z,47.16
2022-07-28T01:26:57.996Z,47.42
2022-07-28T01:29:58.056Z,47.68
2022-07-28T01:32:29.837Z,47.83
2022-07-28T01:35:23.193Z,48.68
2022-07-28T01:37:55.551Z,48.55
2022-07-28T01:40:25.873Z,48.83
2022-07-28T01:42:56.636Z,49.57
2022-07-28T01:45:25.040Z,49.06
2022-07-28T01:47:54.461Z,49.60
2022-07-28T01:50:24.631Z,50.32
2022-07-28T01:52:52.534Z,50.51
2022-07-28T01:55:21.528Z,50.16
2022-07-28T01:57:50.161Z,50.31
2022-07-28T02:00:17.923Z,51.54
2022-07-28T02:02:49.067Z,51.55
2022-07-28T02:05:22.015Z,52.51
2022-07-28T02:07:50.188Z,52.23
2022-07-28T02:10:17.902Z,52.21
2022-07-28T02:12:46.548Z,52.11
2022-07-28T02:15:14.928Z,52.55
2022-07-28T02:17:45.338Z,51.79
2022-07-28T02:20:14.525Z,52.40
2022-07-28T02:22:42.720Z,52.31
2022-07-28T02:25:09.970Z,52.89
2022-07-28T02:27:39.955Z,53.71
2022-07-28T02:30:18.123Z,54.17
2022-07-28T02:32:53.864Z,54.86
2022-07-28T02:35:32.808Z,54.69
2022-07-28T02:38:02.501Z,54.50
2022-07-28T02:40:36.403Z,54.07
2022-07-28T02:43:06.158Z,54.14
2022-07-28T02:45:35.772Z,54.46
2022-07-28T02:48:07.783Z,55.88
2022-07-28T02:50:34.372Z,56.35
2022-07-28T02:53:14.912Z,57.34
2022-07-28T02:55:44.042Z,57.11
2022-07-28T02:58:12.660Z,56.79
2022-07-28T03:00:40.754Z,56.98
2022-07-28T03:03:09.530Z,56.51
2022-07-28T03:05:36.701Z,56.91
2022-07-28T03:08:03.336Z,56.72
2022-07-28T03:10:33.125Z,56.44
2022-07-28T03:13:02.630Z,56.75
2022-07-28T03:15:29.344Z,57.60
2022-07-28T03:17:55.854Z,58.56
2022-07-28T03:20:22.388Z,60.32
2022-07-28T03:22:50.117Z,60.57
2022-07-28T03:25:22.567Z,59.25
2022-07-28T03:27:52.886Z,61.59
2022-07-28T03:30:27.130Z,59.85
2022-07-28T03:32:58.334Z,60.72
2022-07-28T03:35:25.921Z,60.50
2022-07-28T03:37:59.726Z,59.77
2022-07-28T03:40:29.702Z,59.09
2022-07-28T03:42:57.525Z,60.52
2022-07-28T03:45:25.271Z,59.73
2022-07-28T03:47:57.529Z,59.22
2022-07-28T03:50:25.783Z,59.00
2022-07-28T03:52:53.315Z,58.83
2022-07-28T03:55:20.074Z,58.68
2022-07-28T03:57:46.904Z,59.27
2022-07-28T04:00:16.014Z,59.45
2022-07-28T04:02:46.694Z,60.40
2022-07-28T04:05:14.763Z,60.04
2022-07-28T04:07:42.487Z,59.76
2022-07-28T04:10:11.775Z,59.26
2022-07-28T04:12:53.271Z,59.36
2022-07-28T04:15:20.112Z,59.43
2022-07-28T04:17:49.204Z,59.02
2022-07-28T04:20:17.271Z,59.20
2022-07-28T04:22:48.245Z,59.14
2022-07-28T04:25:16.858Z,59.17
2022-07-28T04:27:44.219Z,58.54
2022-07-28T04:30:17.065Z,59.65
2022-07-28T04:32:48.248Z,59.67
2022-07-28T04:35:17.731Z,59.50
2022-07-28T04:37:45.172Z,59.50
2022-07-28T04:40:13.231Z,58.52
2022-07-28T04:42:40.762Z,57.58
2022-07-28T04:45:09.606Z,57.24
2022-07-28T04:47:37.016Z,56.58
2022-07-28T04:50:04.925Z,57.09
2022-07-28T04:52:31.599Z,57.22
2022-07-28T04:54:58.140Z,56.48
2022-07-28T04:57:26.782Z,56.07
2022-07-28T04:59:56.688Z,56.46
2022-07-28T05:02:23.541Z,56.47
2022-07-28T05:04:50.217Z,56.60
2022-07-28T05:07:16.801Z,56.80
2022-07-28T05:09:43.363Z,56.86
2022-07-28T05:12:10.038Z,56.97
2022-07-28T05:14:36.696Z,57.00
2022-07-28T05:17:03.421Z,57.23
2022-07-28T05:19:29.956Z,57.56
2022-07-28T05:21:56.476Z,56.93
2022-07-28T05:24:23.005Z,57.07
2022-07-28T05:26:49.564Z,57.31
2022-07-28T05:29:16.120Z,57.61
2022-07-28T05:31:42.725Z,58.01
2022-07-28T05:34:09.381Z,57.82
2022-07-28T05:36:36.239Z,57.29
2022-07-28T05:39:03.696Z,56.90
2022-07-28T05:41:30.266Z,56.43
2022-07-28T05:43:58.371Z,56.46
2022-07-28T05:46:24.966Z,56.26
2022-07-28T05:48:52.003Z,56.07
2022-07-28T05:51:18.873Z,56.23
2022-07-28T05:53:45.455Z,55.12
2022-07-28T05:56:11.974Z,54.84
2022-07-28T05:58:38.512Z,55.07
2022-07-28T06:01:05.256Z,55.26
2022-07-28T06:03:39.751Z,55.94
2022-07-28T06:06:15.675Z,55.95
2022-07-28T06:08:44.522Z,55.86
2022-07-28T06:11:11.838Z,54.41
2022-07-28T06:13:47.757Z,53.35
2022-07-28T06:16:14.460Z,52.35
2022-07-28T06:18:41.072Z,52.39
2022-07-28T06:21:07.602Z,51.03
2022-07-28T06:23:34.212Z,50.74
2022-07-28T06:26:00.818Z,50.49
2022-07-28T06:28:27.542Z,50.39
2022-07-28T06:30:54.150Z,50.62
2022-07-28T06:33:20.651Z,50.79
2022-07-28T06:35:51.038Z,50.55
2022-07-28T06:38:20.276Z,49.82
2022-07-28T06:40:47.175Z,50.04
2022-07-28T06:43:14.681Z,49.84
2022-07-28T06:45:41.443Z,49.12
2022-07-28T06:48:10.682Z,49.04
2022-07-28T06:50:39.380Z,48.72
2022-07-28T06:53:06.377Z,49.07
2022-07-28T06:55:35.262Z,49.19
2022-07-28T06:58:06.125Z,49.25
2022-07-28T07:00:33.145Z,48.76
2022-07-28T07:03:00.952Z,48.84
2022-07-28T07:05:29.990Z,48.57
2022-07-28T07:07:56.632Z,49.08
2022-07-28T07:10:23.546Z,49.46
2022-07-28T07:12:50.074Z,49.07
2022-07-28T07:15:16.628Z,48.88
2022-07-28T07:17:43.158Z,48.23
2022-07-28T07:20:10.557Z,48.18
2022-07-28T07:22:47.696Z,48.09
2022-07-28T07:25:16.632Z,47.88
2022-07-28T07:27:44.092Z,47.61
2022-07-28T07:30:11.252Z,47.53
2022-07-28T07:32:38.881Z,47.20
2022-07-28T07:35:06.520Z,45.70
2022-07-28T07:37:33.288Z,45.36
2022-07-28T07:40:01.186Z,45.76
2022-07-28T07:42:28.200Z,46.31
2022-07-28T07:44:54.971Z,44.71
2022-07-28T07:47:21.504Z,45.62
2022-07-28T07:49:48.071Z,45.66
2022-07-28T07:52:14.938Z,45.23
2022-07-28T07:54:42.312Z,44.48
2022-07-28T07:57:10.000Z,44.67
2022-07-28T07:59:36.732Z,44.59
2022-07-28T08:02:03.956Z,45.03
2022-07-28T08:04:30.775Z,43.89
2022-07-28T08:06:57.438Z,42.96
2022-07-28T08:09:24.331Z,42.35
2022-07-28T08:11:51.031Z,43.12
2022-07-28T08:14:18.293Z,43.07
2022-07-28T08:16:45.198Z,42.00
2022-07-28T08:19:11.863Z,40.84
2022-07-28T08:21:38.559Z,41.25
2022-07-28T08:24:05.534Z,41.63
2022-07-28T08:26:32.078Z,42.30
2022-07-28T08:28:58.620Z,43.57
2022-07-28T08:31:26.506Z,43.40
2022-07-28T08:33:54.558Z,43.16
2022-07-28T08:36:21.935Z,43.01
2022-07-28T08:38:48.450Z,41.59
2022-07-28T08:41:22.835Z,41.62
2022-07-28T08:43:52.705Z,41.51
2022-07-28T08:46:21.115Z,41.83
2022-07-28T08:48:48.257Z,42.11
2022-07-28T08:51:15.999Z,41.17
2022-07-28T08:53:43.255Z,40.96
2022-07-28T08:56:13.966Z,40.91
2022-07-28T08:58:40.960Z,39.68
2022-07-28T09:01:08.953Z,39.91
2022-07-28T09:03:36.491Z,39.08
2022-07-28T09:06:03.857Z,38.80
2022-07-28T09:08:30.459Z,38.64
2022-07-28T09:10:57.088Z,39.11
2022-07-28T09:13:23.651Z,39.72
2022-07-28T09:15:50.470Z,39.58
2022-07-28T09:18:17.946Z,40.29
2022-07-28T09:20:45.403Z,37.47
2022-07-28T09:23:42.756Z,37.29
2022-07-28T09:26:12.062Z,36.23
2022-07-28T09:28:54.554Z,36.97
2022-07-28T09:31:22.790Z,37.99
2022-07-28T09:34:05.634Z,37.23
2022-07-28T09:36:40.334Z,36.72
2022-07-28T09:39:07.711Z,35.08
2022-07-28T09:41:50.976Z,34.20
2022-07-28T09:44:21.678Z,35.16
2022-07-28T09:46:48.625Z,35.81
2022-07-28T09:49:15.560Z,36.14
2022-07-28T09:51:42.557Z,36.79
2022-07-28T09:54:18.397Z,36.48
2022-07-28T09:56:45.688Z,36.61
2022-07-28T09:59:14.980Z,35.35
2022-07-28T10:02:12.791Z,34.69
2022-07-28T10:04:41.609Z,33.93
2022-07-28T10:07:11.428Z,32.40
2022-07-28T10:09:38.903Z,31.39
2022-07-28T10:12:22.959Z,32.60
2022-07-28T10:14:51.956Z,33.69
2022-07-28T10:17:26.952Z,34.24
2022-07-28T10:19:55.149Z,33.56
2022-07-28T10:22:23.590Z,32.52
2022-07-28T10:24:53.005Z,31.79
2022-07-28T10:27:27.779Z,32.38
2022-07-28T10:30:03.610Z,32.96
2022-07-28T10:32:38.202Z,32.01
2022-07-28T10:35:15.945Z,32.89
2022-07-28T10:38:00.052Z,32.21
2022-07-28T10:40:31.976Z,31.75
2022-07-28T10:43:00.310Z,29.69
2022-07-28T10:45:47.950Z,30.85
2022-07-28T10:48:15.412Z,31.50
2022-07-28T10:50:42.895Z,30.34
2022-07-28T10:53:11.706Z,27.76
2022-07-28T10:55:59.751Z,27.02
2022-07-28T10:59:01.427Z,27.84
2022-07-28T11:01:50.090Z,27.81
2022-07-28T11:04:46.168Z,27.66
2022-07-28T11:07:14.985Z,28.38
2022-07-28T11:09:41.627Z,29.71
2022-07-28T11:12:09.875Z,30.41
2022-07-28T11:14:39.169Z,28.54
2022-07-28T11:17:05.774Z,27.10
2022-07-28T11:22:34.368Z,27.36
2022-07-28T11:25:20.511Z,28.16
2022-07-28T11:27:51.547Z,27.70
2022-07-28T11:30:35.850Z,27.22
2022-07-28T11:33:04.631Z,27.75
2022-07-28T11:35:52.048Z,27.31
2022-07-28T11:38:19.127Z,28.01
2022-07-28T11:40:47.608Z,25.91
2022-07-28T11:43:35.488Z,26.85
2022-07-28T11:46:04.580Z,26.80
2022-07-28T11:48:33.736Z,27.02
2022-07-28T11:51:03.413Z,26.79
2022-07-28T11:53:33.273Z,26.83
2022-07-28T11:56:03.299Z,26.91
2022-07-28T11:58:30.143Z,27.96
2022-07-28T12:01:20.027Z,28.29
2022-07-28T12:03:54.969Z,26.88
2022-07-28T12:06:28.637Z,25.87
2022-07-28T12:09:01.407Z,25.35
2022-07-28T12:11:31.830Z,25.45
2022-07-28T12:14:03.012Z,25.40
2022-07-28T12:16:30.803Z,25.56
2022-07-28T12:19:00.745Z,25.90
2022-07-28T12:21:47.963Z,26.15
2022-07-28T12:24:18.583Z,26.30
2022-07-28T12:26:49.171Z,26.38
2022-07-28T12:29:17.416Z,26.43
2022-07-28T12:32:00.900Z,26.58
2022-07-28T12:34:29.608Z,26.99
2022-07-28T12:37:04.479Z,26.83
2022-07-28T12:39:36.714Z,26.76
2022-07-28T12:42:05.942Z,28.19
2022-07-28T12:44:35.146Z,29.06
2022-07-28T12:47:02.816Z,27.82
2022-07-28T12:49:29.384Z,27.37
2022-07-28T12:51:58.193Z,25.77
2022-07-28T12:54:36.047Z,25.59
2022-07-28T12:57:03.625Z,26.27
2022-07-28T12:59:35.420Z,27.65
2022-07-28T13:02:05.518Z,25.55
2022-07-28T13:04:42.567Z,26.08
2022-07-28T13:07:32.018Z,25.52
2022-07-28T13:10:07.258Z,26.08
2022-07-28T13:12:39.319Z,26.49
2022-07-28T13:15:16.359Z,24.92
2022-07-28T13:17:51.152Z,24.78
2022-07-28T13:20:18.601Z,24.73
2022-07-28T13:22:45.695Z,24.64
2022-07-28T13:25:13.374Z,24.60
2022-07-28T13:27:41.248Z,24.28
2022-07-28T13:30:09.599Z,25.00
2022-07-28T13:32:37.008Z,24.35
2022-07-28T13:35:06.088Z,24.54
2022-07-28T13:37:41.501Z,23.99
2022-07-28T13:40:08.846Z,24.59
2022-07-28T13:42:35.435Z,24.01
2022-07-28T13:45:05.089Z,23.99
2022-07-28T13:47:35.617Z,24.55
2022-07-28T13:50:06.696Z,26.31
2022-07-28T13:52:37.290Z,24.38
2022-07-28T13:55:06.093Z,24.54
2022-07-28T13:57:36.358Z,25.36
2022-07-28T14:00:08.048Z,25.31
2022-07-28T14:02:35.735Z,26.01
2022-07-28T14:05:02.668Z,25.66
2022-07-28T14:07:29.311Z,25.36
2022-07-28T14:09:55.843Z,25.85
2022-07-28T14:12:22.477Z,26.99
2022-07-28T14:14:51.475Z,26.84
2022-07-28T14:20:10.310Z,26.14
2022-07-28T14:22:36.846Z,26.54
2022-07-28T14:25:03.782Z,26.67
2022-07-28T14:27:30.615Z,25.21
2022-07-28T14:29:57.206Z,25.03
2022-07-28T14:32:23.839Z,25.44
2022-07-28T14:34:50.770Z,28.50
2022-07-28T14:37:17.852Z,26.43
2022-07-28T14:39:44.653Z,25.24
2022-07-28T14:42:11.791Z,26.00
2022-07-28T14:44:38.346Z,26.08
2022-07-28T14:47:06.557Z,25.77
2022-07-28T14:49:34.559Z,24.51
2022-07-28T14:52:01.274Z,24.68
2022-07-28T14:54:27.963Z,24.90
2022-07-28T14:56:54.884Z,24.49
2022-07-28T14:59:21.611Z,23.11
2022-07-28T15:01:48.943Z,22.83
2022-07-28T15:04:16.455Z,22.31
2022-07-28T15:06:43.394Z,22.50
2022-07-28T15:09:10.213Z,22.22
2022-07-28T15:11:37.526Z,20.93
2022-07-28T15:14:04.507Z,21.05
2022-07-28T15:16:31.368Z,21.38
2022-07-28T15:18:58.311Z,20.20
2022-07-28T15:21:25.103Z,19.89
2022-07-28T15:23:51.770Z,20.43
2022-07-28T15:26:18.307Z,20.25
2022-07-28T15:28:48.301Z,20.64
2022-07-28T15:31:15.984Z,21.22
2022-07-28T15:33:48.268Z,21.73
2022-07-28T15:36:18.464Z,22.70
2022-07-28T15:38:47.482Z,23.27
2022-07-28T15:41:16.776Z,22.68
2022-07-28T15:43:43.963Z,23.20
2022-07-28T15:46:13.023Z,23.12
2022-07-28T15:48:41.742Z,22.50
2022-07-28T15:51:09.204Z,22.37
2022-07-28T15:53:36.658Z,22.74
2022-07-28T15:56:04.679Z,23.34
2022-07-28T15:58:31.834Z,22.30
2022-07-28T16:01:00.940Z,21.67
2022-07-28T16:03:28.733Z,21.77
2022-07-28T16:05:55.337Z,22.04
2022-07-28T16:08:23.300Z,23.49
2022-07-28T16:10:51.612Z,23.27
2022-07-28T16:13:33.310Z,22.95
2022-07-28T16:16:12.467Z,22.89
2022-07-28T16:18:42.831Z,22.45
2022-07-28T16:21:10.659Z,22.37
2022-07-28T16:23:37.183Z,22.31
2022-07-28T16:26:07.786Z,22.42
2022-07-28T16:28:35.491Z,22.49
2022-07-28T16:31:02.217Z,22.09
2022-07-28T16:33:33.596Z,22.26
2022-07-28T16:36:01.281Z,22.06
2022-07-28T16:38:27.839Z,21.47
2022-07-28T16:40:54.437Z,22.05
2022-07-28T16:43:21.024Z,21.36
2022-07-28T16:45:47.552Z,21.61
2022-07-28T16:48:15.311Z,22.20
2022-07-28T16:50:45.847Z,22.81
2022-07-28T16:53:13.836Z,23.25
2022-07-28T16:55:42.137Z,23.58
2022-07-28T16:58:08.812Z,23.61
2022-07-28T17:00:35.499Z,23.40
2022-07-28T17:03:02.036Z,23.78
2022-07-28T17:05:28.550Z,23.92
2022-07-28T17:07:55.117Z,23.31
2022-07-28T17:10:27.217Z,23.50
2022-07-28T17:12:54.775Z,23.45
2022-07-28T17:15:22.667Z,24.00
2022-07-28T17:17:51.043Z,23.71
2022-07-28T17:20:17.686Z,24.31
2022-07-28T17:22:44.920Z,25.16
2022-07-28T17:25:35.566Z,25.21
2022-07-28T17:27:58.610Z,25.71
2022-07-28T17:30:25.315Z,25.84
2022-07-28T17:32:52.865Z,25.21
2022-07-28T17:35:34.424Z,25.71
2022-07-28T17:38:02.658Z,26.01
2022-07-28T17:40:30.306Z,26.61
2022-07-28T17:42:58.554Z,26.15
2022-07-28T17:45:25.166Z,26.79
2022-07-28T17:47:52.070Z,27.81
2022-07-28T17:50:19.623Z,28.50
2022-07-28T17:52:46.602Z,28.73
2022-07-28T17:55:40.664Z,29.70
2022-07-28T17:58:29.164Z,30.39
2022-07-28T18:01:11.066Z,30.87
2022-07-28T18:03:56.631Z,31.80
2022-07-28T18:06:32.261Z,32.19
2022-07-28T18:09:05.284Z,32.97
2022-07-28T18:11:33.439Z,33.36
2022-07-28T18:14:04.007Z,34.57
2022-07-28T18:16:31.382Z,33.80
2022-07-28T18:18:58.132Z,34.38
2022-07-28T18:21:26.459Z,34.57
2022-07-28T18:23:53.096Z,34.50
2022-07-28T18:26:21.991Z,34.54
2022-07-28T18:28:48.840Z,34.71
2022-07-28T18:31:15.525Z,34.74
2022-07-28T18:33:42.122Z,34.44
2022-07-28T18:36:08.740Z,35.49
2022-07-28T18:38:35.286Z,36.65
2022-07-28T18:41:01.845Z,37.20
2022-07-28T18:43:28.393Z,37.20
2022-07-28T18:45:54.999Z,37.27
2022-07-28T18:48:21.630Z,37.24
2022-07-28T18:50:48.150Z,38.56
2022-07-28T18:53:15.105Z,39.30
2022-07-28T18:55:41.739Z,38.42
2022-07-28T18:58:08.408Z,39.30
2022-07-28T19:00:35.109Z,39.22
2022-07-28T19:03:01.710Z,40.11
2022-07-28T19:05:36.666Z,39.30
2022-07-28T19:08:04.957Z,39.67
2022-07-28T19:10:32.385Z,40.50
2022-07-28T19:12:59.543Z,41.82
2022-07-28T19:15:26.206Z,40.44
2022-07-28T19:18:11.459Z,40.58
2022-07-28T19:20:43.991Z,40.94
2022-07-28T19:23:10.566Z,41.46
2022-07-28T19:25:38.791Z,41.74
2022-07-28T19:28:06.063Z,41.24
2022-07-28T19:30:32.769Z,41.93
2022-07-28T19:32:59.814Z,41.83
2022-07-28T19:35:26.516Z,41.99
2022-07-28T19:37:53.261Z,42.59
2022-07-28T19:40:19.916Z,42.78
2022-07-28T19:42:52.171Z,42.74
2022-07-28T19:45:18.931Z,42.71
2022-07-28T19:47:45.471Z,42.90
2022-07-28T19:50:16.406Z,44.67
2022-07-28T19:52:43.007Z,44.20
2022-07-28T19:55:09.687Z,44.63
2022-07-28T19:57:36.513Z,44.16
2022-07-28T20:00:04.542Z,44.63
2022-07-28T20:02:31.161Z,44.83
2022-07-28T20:04:57.695Z,45.43
2022-07-28T20:07:25.322Z,45.64
2022-07-28T20:09:51.861Z,45.73
2022-07-28T20:12:18.708Z,45.71
2022-07-28T20:14:45.259Z,46.02
2022-07-28T20:17:29.605Z,45.98
2022-07-28T20:19:58.976Z,46.46
2022-07-28T20:22:25.772Z,46.14
2022-07-28T20:24:52.305Z,46.78
2022-07-28T20:27:18.898Z,47.04
2022-07-28T20:29:45.418Z,47.19
2022-07-28T20:32:11.977Z,47.49
2022-07-28T20:34:38.612Z,47.45
2022-07-28T20:37:05.368Z,47.38
2022-07-28T20:39:44.394Z,47.76
2022-07-28T20:42:11.727Z,48.07
2022-07-28T20:44:38.527Z,49.75
2022-07-28T20:47:05.357Z,48.84
2022-07-28T20:49:32.116Z,49.53
2022-07-28T20:51:58.775Z,50.15
2022-07-28T20:54:26.477Z,49.19
2022-07-28T20:56:53.733Z,49.39
2022-07-28T20:59:20.282Z,49.82
2022-07-28T21:01:46.920Z,50.30
2022-07-28T21:04:13.911Z,49.84
2022-07-28T21:06:51.232Z,50.42
2022-07-28T21:09:19.403Z,50.55
2022-07-28T21:11:45.941Z,50.19
2022-07-28T21:14:12.620Z,50.82
2022-07-28T21:16:39.485Z,51.04
2022-07-28T21:19:06.146Z,51.75
2022-07-28T21:21:32.736Z,51.58
2022-07-28T21:23:59.269Z,51.62
2022-07-28T21:26:25.814Z,51.57
2022-07-28T21:29:11.007Z,52.22
2022-07-28T21:32:03.851Z,51.87
2022-07-28T21:34:26.935Z,52.14
2022-07-28T21:36:56.970Z,52.33
2022-07-28T21:39:23.479Z,51.83
2022-07-28T21:41:50.057Z,51.94
2022-07-28T21:44:16.723Z,51.86
2022-07-28T21:46:45.768Z,52.48
2022-07-28T21:49:13.051Z,52.44
2022-07-28T21:51:40.059Z,52.54
2022-07-28T21:54:06.885Z,52.06
2022-07-28T21:56:34.892Z,52.88
2022-07-28T21:59:02.425Z,52.88
2022-07-28T22:01:29.308Z,52.82
2022-07-28T22:03:56.625Z,52.72
2022-07-28T22:06:23.271Z,53.13
2022-07-28T22:08:53.671Z,53.75
2022-07-28T22:11:21.780Z,54.01
2022-07-28T22:13:48.507Z,54.70
2022-07-28T22:16:15.455Z,55.05
2022-07-28T22:18:42.082Z,55.09
2022-07-28T22:21:08.647Z,54.67
2022-07-28T22:23:35.165Z,54.70
2022-07-28T22:26:01.959Z,54.89
2022-07-28T22:28:30.704Z,54.71
2022-07-28T22:30:58.849Z,54.92
2022-07-28T22:33:36.103Z,55.63
2022-07-28T22:36:04.232Z,55.36
2022-07-28T22:38:30.858Z,55.72
2022-07-28T22:40:57.379Z,56.16
2022-07-28T22:43:23.902Z,55.88
2022-07-28T22:45:51.689Z,54.96
2022-07-28T22:48:18.863Z,54.37
2022-07-28T22:50:45.583Z,53.55
2022-07-28T22:53:12.156Z,53.45
2022-07-28T22:58:23.850Z,53.11
2022-07-28T23:00:51.462Z,51.90
2022-07-28T23:03:18.658Z,52.50
2022-07-28T23:05:45.358Z,52.13
2022-07-28T23:08:11.982Z,52.00
2022-07-28T23:10:39.722Z,52.07
2022-07-28T23:13:06.699Z,51.96
2022-07-28T23:15:40.517Z,51.89
2022-07-28T23:18:10.649Z,51.68
2022-07-28T23:20:38.819Z,51.59
2022-07-28T23:23:06.067Z,51.55
2022-07-28T23:25:33.105Z,51.40
2022-07-28T23:28:00.670Z,51.00
2022-07-28T23:30:27.331Z,51.04
2022-07-28T23:32:54.002Z,50.83
2022-07-28T23:35:20.655Z,50.87
2022-07-28T23:37:47.419Z,50.92
2022-07-28T23:40:14.446Z,50.61
2022-07-28T23:42:41.109Z,50.36
2022-07-28T23:45:09.177Z,50.22
2022-07-28T23:47:35.945Z,50.56
2022-07-28T23:50:04.565Z,50.31
2022-07-28T23:52:31.231Z,50.18
2022-07-28T23:54:57.903Z,50.17
2022-07-28T23:57:24.501Z,49.93
2022-07-28T23:59:51.180Z,50.30
